createdAt,value
2018-05-17T00:01:08.839Z,6.93
2018-05-17T00:03:36.279Z,7.97
2018-05-17T00:06:03.678Z,7.10
2018-05-17T00:08:31.339Z,8.97
2018-05-17T00:10:58.760Z,8.97
2018-05-17T00:13:26.182Z,8.23
2018-05-17T00:15:54.363Z,8.70
2018-05-17T00:18:21.790Z,8.30
2018-05-17T00:20:49.202Z,7.57
2018-05-17T00:23:16.634Z,6.70
2018-05-17T00:25:44.051Z,6.53
2018-05-17T00:28:11.479Z,7.10
2018-05-17T00:30:38.959Z,7.60
2018-05-17T00:33:06.387Z,7.10
2018-05-17T00:35:33.798Z,7.30
2018-05-17T00:38:01.223Z,7.03
2018-05-17T00:40:28.771Z,6.83
2018-05-17T00:42:56.191Z,7.90
2018-05-17T00:45:24.378Z,6.70
2018-05-17T00:47:51.863Z,7.40
2018-05-17T00:50:19.291Z,6.93
2018-05-17T00:52:58.471Z,7.73
2018-05-17T00:55:26.087Z,7.60
2018-05-17T00:57:53.671Z,7.90
2018-05-17T01:00:21.132Z,7.50
2018-05-17T01:02:48.587Z,6.10
2018-05-17T01:05:16.012Z,8.30
2018-05-17T01:07:43.478Z,7.40
2018-05-17T01:10:10.955Z,8.10
2018-05-17T01:12:38.377Z,7.13
2018-05-17T01:15:05.799Z,7.43
2018-05-17T01:17:33.222Z,9.80
2018-05-17T01:20:00.655Z,10.10
2018-05-17T01:22:28.078Z,8.30
2018-05-17T01:24:55.510Z,10.67
2018-05-17T01:27:23.142Z,11.23
2018-05-17T01:29:50.574Z,14.30
2018-05-17T01:32:17.999Z,15.23
2018-05-17T01:34:46.211Z,12.80
2018-05-17T01:37:25.362Z,13.03
2018-05-17T01:39:52.935Z,13.13
2018-05-17T01:42:20.478Z,13.40
2018-05-17T01:44:47.930Z,15.10
2018-05-17T01:47:15.357Z,15.30
2018-05-17T01:49:42.786Z,14.80
2018-05-17T01:52:10.215Z,22.27
2018-05-17T01:54:37.647Z,20.63
2018-05-17T01:57:05.214Z,22.67
2018-05-17T01:59:32.649Z,24.47
2018-05-17T02:02:00.071Z,24.67
2018-05-17T02:04:27.503Z,31.30
2018-05-17T02:06:54.942Z,22.60
2018-05-17T02:09:22.381Z,23.53
2018-05-17T02:11:49.807Z,23.30
2018-05-17T02:14:17.998Z,25.03
2018-05-17T02:16:45.421Z,25.83
2018-05-17T02:19:12.857Z,28.33
2018-05-17T02:21:40.283Z,25.20
2018-05-17T02:24:07.717Z,24.80
2018-05-17T02:26:35.141Z,20.77
2018-05-17T02:29:02.595Z,26.30
2018-05-17T02:31:30.219Z,24.87
2018-05-17T02:33:57.651Z,22.37
2018-05-17T02:36:25.083Z,27.77
2018-05-17T02:38:52.510Z,19.60
2018-05-17T02:41:19.935Z,23.20
2018-05-17T02:43:47.379Z,25.67
2018-05-17T02:46:14.859Z,21.70
2018-05-17T02:48:42.282Z,24.77
2018-05-17T02:51:09.718Z,25.10
2018-05-17T02:53:37.912Z,24.23
2018-05-17T02:56:05.338Z,30.67
2018-05-17T02:58:32.763Z,27.87
2018-05-17T03:01:00.215Z,26.30
2018-05-17T03:03:27.642Z,25.33
2018-05-17T03:05:55.077Z,28.30
2018-05-17T03:08:23.263Z,21.77
2018-05-17T03:10:50.695Z,25.90
2018-05-17T03:13:18.118Z,18.07
2018-05-17T03:15:45.666Z,21.73
2018-05-17T03:18:13.095Z,22.30
2018-05-17T03:20:40.522Z,26.27
2018-05-17T03:23:07.959Z,25.17
2018-05-17T03:25:36.162Z,24.73
2018-05-17T03:28:03.610Z,22.70
2018-05-17T03:30:31.039Z,22.00
2018-05-17T03:32:58.642Z,26.97
2018-05-17T03:35:26.228Z,21.67
2018-05-17T03:37:53.650Z,18.50
2018-05-17T03:40:21.135Z,20.40
2018-05-17T03:42:48.558Z,22.87
2018-05-17T03:45:15.994Z,19.33
2018-05-17T03:47:43.418Z,18.43
2018-05-17T03:50:10.851Z,16.87
2018-05-17T03:52:38.294Z,22.60
2018-05-17T03:55:05.891Z,17.50
2018-05-17T03:57:33.311Z,20.77
2018-05-17T04:00:00.747Z,21.73
2018-05-17T04:02:40.031Z,19.63
2018-05-17T04:05:19.355Z,17.40
2018-05-17T04:07:46.778Z,21.90
2018-05-17T04:10:14.216Z,18.73
2018-05-17T04:12:41.639Z,18.50
2018-05-17T04:15:09.412Z,14.57
2018-05-17T04:17:36.843Z,16.10
2018-05-17T04:20:04.270Z,17.10
2018-05-17T04:22:31.762Z,17.17
2018-05-17T04:24:59.199Z,18.77
2018-05-17T04:27:26.684Z,16.00
2018-05-17T04:29:54.229Z,20.20
2018-05-17T04:32:21.658Z,19.47
2018-05-17T04:34:49.095Z,19.30
2018-05-17T04:37:16.527Z,19.10
2018-05-17T04:39:44.063Z,16.13
2018-05-17T04:42:11.688Z,14.80
2018-05-17T04:44:39.122Z,14.40
2018-05-17T04:47:07.344Z,14.80
2018-05-17T04:49:34.757Z,12.20
2018-05-17T04:52:02.984Z,13.20
2018-05-17T04:54:30.508Z,14.80
2018-05-17T04:56:57.938Z,11.47
2018-05-17T04:59:26.162Z,12.77
2018-05-17T05:01:53.615Z,13.43
2018-05-17T05:04:21.044Z,12.53
2018-05-17T05:06:48.478Z,13.30
2018-05-17T05:09:15.902Z,12.77
2018-05-17T05:11:43.350Z,12.80
2018-05-17T05:14:10.788Z,13.97
2018-05-17T05:16:38.267Z,10.50
2018-05-17T05:19:05.688Z,14.07
2018-05-17T05:21:33.129Z,12.83
2018-05-17T05:24:01.314Z,11.40
2018-05-17T05:26:28.759Z,11.13
2018-05-17T05:28:56.174Z,11.50
2018-05-17T05:31:23.702Z,12.30
2018-05-17T05:33:51.130Z,13.30
2018-05-17T05:36:18.562Z,14.00
2018-05-17T05:38:45.988Z,13.10
2018-05-17T05:41:13.431Z,13.33
2018-05-17T05:43:40.859Z,11.27
2018-05-17T05:46:08.291Z,12.20
2018-05-17T05:48:36.482Z,11.80
2018-05-17T05:51:03.918Z,12.13
2018-05-17T05:53:31.347Z,12.70
2018-05-17T05:55:58.782Z,12.40
2018-05-17T05:58:26.211Z,10.67
2018-05-17T06:00:53.644Z,13.67
2018-05-17T06:03:21.866Z,14.03
2018-05-17T06:05:49.298Z,13.00
2018-05-17T06:08:16.731Z,15.10
2018-05-17T06:10:44.155Z,16.63
2018-05-17T06:13:11.686Z,13.47
2018-05-17T06:15:39.118Z,16.50
2018-05-17T06:18:06.542Z,15.30
2018-05-17T06:20:33.974Z,16.63
2018-05-17T06:23:01.403Z,16.67
2018-05-17T06:25:28.909Z,17.40
2018-05-17T06:27:56.730Z,16.20
2018-05-17T06:30:24.178Z,19.40
2018-05-17T06:32:51.590Z,18.17
2018-05-17T06:35:19.022Z,17.27
2018-05-17T06:37:46.458Z,18.97
2018-05-17T06:40:14.019Z,17.73
2018-05-17T06:42:41.443Z,15.47
2018-05-17T06:45:08.926Z,19.70
2018-05-17T06:47:37.178Z,19.07
2018-05-17T06:50:04.762Z,18.23
2018-05-17T06:52:32.218Z,21.47
2018-05-17T06:54:59.643Z,17.20
2018-05-17T06:57:27.077Z,16.90
2018-05-17T06:59:54.499Z,18.17
2018-05-17T07:02:21.936Z,16.93
2018-05-17T07:04:49.362Z,15.87
2018-05-17T07:07:17.561Z,15.83
2018-05-17T07:09:44.982Z,13.30
2018-05-17T07:12:12.414Z,15.17
2018-05-17T07:14:39.846Z,13.90
2018-05-17T07:17:07.278Z,16.27
2018-05-17T07:19:34.706Z,16.37
2018-05-17T07:22:03.106Z,15.23
2018-05-17T07:24:30.531Z,15.60
2018-05-17T07:26:58.736Z,15.23
2018-05-17T07:29:26.156Z,15.47
2018-05-17T07:31:54.034Z,15.87
2018-05-17T07:34:21.642Z,14.60
2018-05-17T07:36:49.079Z,15.00
2018-05-17T07:39:16.604Z,15.50
2018-05-17T07:41:43.954Z,12.90
2018-05-17T07:44:12.147Z,14.37
2018-05-17T07:46:39.611Z,14.10
2018-05-17T07:49:07.010Z,12.17
2018-05-17T07:51:34.550Z,14.93
2018-05-17T07:54:01.974Z,14.40
2018-05-17T07:56:29.409Z,14.00
2018-05-17T07:58:56.830Z,13.30
2018-05-17T08:01:24.274Z,14.30
2018-05-17T08:03:51.735Z,12.27
2018-05-17T08:06:19.171Z,12.50
2018-05-17T08:08:46.739Z,14.27
2018-05-17T08:11:14.170Z,15.00
2018-05-17T08:13:41.595Z,13.63
2018-05-17T08:16:09.798Z,12.50
2018-05-17T08:18:37.247Z,11.50
2018-05-17T08:21:05.531Z,13.47
2018-05-17T08:23:32.958Z,13.57
2018-05-17T08:26:00.391Z,13.30
2018-05-17T08:28:27.820Z,11.93
2018-05-17T08:30:55.370Z,13.13
2018-05-17T08:33:22.838Z,13.10
2018-05-17T08:35:50.302Z,10.40
2018-05-17T08:38:17.726Z,12.17
2018-05-17T08:40:45.154Z,10.37
2018-05-17T08:43:12.666Z,10.97
2018-05-17T08:45:40.109Z,11.07
2018-05-17T08:48:07.518Z,11.63
2018-05-17T08:50:35.039Z,11.07
2018-05-17T08:53:02.473Z,12.20
2018-05-17T08:55:29.895Z,11.33
2018-05-17T08:57:57.326Z,10.60
2018-05-17T09:00:24.751Z,12.03
2018-05-17T09:02:52.227Z,12.20
2018-05-17T09:05:19.654Z,10.97
2018-05-17T09:07:47.087Z,10.30
2018-05-17T09:10:15.298Z,10.00
2018-05-17T09:12:42.754Z,12.00
2018-05-17T09:15:10.179Z,11.50
2018-05-17T09:17:37.612Z,11.40
2018-05-17T09:20:05.125Z,11.20
2018-05-17T09:22:32.471Z,10.77
2018-05-17T09:24:59.935Z,9.37
2018-05-17T09:27:27.371Z,9.97
2018-05-17T09:29:54.947Z,10.17
2018-05-17T09:32:22.378Z,9.93
2018-05-17T09:34:49.801Z,8.73
2018-05-17T09:37:17.231Z,9.73
2018-05-17T09:39:44.674Z,10.93
2018-05-17T09:42:12.123Z,12.20
2018-05-17T09:44:39.615Z,9.60
2018-05-17T09:47:07.142Z,11.30
2018-05-17T09:49:34.567Z,11.37
2018-05-17T09:52:01.995Z,7.90
2018-05-17T09:54:29.418Z,9.70
2018-05-17T09:56:56.969Z,9.93
2018-05-17T09:59:24.395Z,10.20
2018-05-17T10:01:51.880Z,8.73
2018-05-17T10:04:19.332Z,10.93
2018-05-17T10:06:46.790Z,9.70
2018-05-17T10:09:14.223Z,11.03
2018-05-17T10:11:41.651Z,10.63
2018-05-17T10:14:09.084Z,10.13
2018-05-17T10:16:36.619Z,10.77
2018-05-17T10:19:04.046Z,10.27
2018-05-17T10:21:31.470Z,11.43
2018-05-17T10:23:58.902Z,11.40
2018-05-17T10:26:26.442Z,11.10
2018-05-17T10:28:53.874Z,10.30
2018-05-17T10:31:21.351Z,9.60
2018-05-17T10:33:48.806Z,10.33
2018-05-17T10:36:16.266Z,9.80
2018-05-17T10:38:43.719Z,9.37
2018-05-17T10:41:11.143Z,8.57
2018-05-17T10:43:38.571Z,9.70
2018-05-17T10:46:05.994Z,10.80
2018-05-17T10:48:33.489Z,9.73
2018-05-17T10:51:00.910Z,10.30
2018-05-17T10:53:28.382Z,11.23
2018-05-17T10:55:55.818Z,9.87
2018-05-17T10:58:23.243Z,9.77
2018-05-17T11:00:50.787Z,9.07
2018-05-17T11:03:18.207Z,8.93
2018-05-17T11:05:45.633Z,8.90
2018-05-17T11:08:13.060Z,9.27
2018-05-17T11:10:41.253Z,9.80
2018-05-17T11:13:08.674Z,10.13
2018-05-17T11:15:36.110Z,12.20
2018-05-17T11:18:03.533Z,9.43
2018-05-17T11:20:31.002Z,10.53
2018-05-17T11:22:58.547Z,11.17
2018-05-17T11:25:25.982Z,11.63
2018-05-17T11:27:53.402Z,11.77
2018-05-17T11:30:20.845Z,11.10
2018-05-17T11:32:48.574Z,12.30
2018-05-17T11:35:15.989Z,12.17
2018-05-17T11:37:44.190Z,12.27
2018-05-17T11:40:11.662Z,12.03
2018-05-17T11:42:39.096Z,12.40
2018-05-17T11:45:06.579Z,12.30
2018-05-17T11:47:34.002Z,11.00
2018-05-17T11:50:01.435Z,11.90
2018-05-17T11:52:28.863Z,10.77
2018-05-17T11:54:56.398Z,11.60
2018-05-17T11:57:23.858Z,13.80
2018-05-17T11:59:51.290Z,13.57
2018-05-17T12:02:18.718Z,11.63
2018-05-17T12:04:46.227Z,10.67
2018-05-17T12:07:13.712Z,11.47
2018-05-17T12:09:41.087Z,11.43
2018-05-17T12:12:08.514Z,12.83
2018-05-17T12:14:35.963Z,11.90
2018-05-17T12:17:03.386Z,11.33
2018-05-17T12:19:30.970Z,13.00
2018-05-17T12:21:58.420Z,12.80
2018-05-17T12:24:25.854Z,12.47
2018-05-17T12:26:53.334Z,12.00
2018-05-17T12:29:20.766Z,10.80
2018-05-17T12:31:48.235Z,13.20
2018-05-17T12:34:15.702Z,10.30
2018-05-17T12:36:43.155Z,12.40
2018-05-17T12:39:10.610Z,12.93
2018-05-17T12:41:38.039Z,12.83
2018-05-17T12:44:05.480Z,12.33
2018-05-17T12:46:32.983Z,11.77
2018-05-17T12:49:00.402Z,12.10
2018-05-17T12:51:27.846Z,14.57
2018-05-17T12:53:55.352Z,14.80
2018-05-17T12:56:22.783Z,14.83
2018-05-17T12:58:50.297Z,15.33
2018-05-17T13:01:18.551Z,14.87
2018-05-17T13:03:46.098Z,15.70
2018-05-17T13:06:13.526Z,16.10
2018-05-17T13:08:40.949Z,13.90
2018-05-17T13:11:08.382Z,14.90
2018-05-17T13:13:35.801Z,16.30
2018-05-17T13:16:03.227Z,15.20
2018-05-17T13:18:31.414Z,16.80
2018-05-17T13:20:58.841Z,19.00
2018-05-17T13:23:26.266Z,19.10
2018-05-17T13:25:53.690Z,19.40
2018-05-17T13:28:21.111Z,16.23
2018-05-17T13:30:48.610Z,18.50
2018-05-17T13:33:16.026Z,18.60
2018-05-17T13:35:43.642Z,18.07
2018-05-17T13:38:11.067Z,16.83
2018-05-17T13:40:38.498Z,18.80
2018-05-17T13:43:05.919Z,17.30
2018-05-17T13:45:33.350Z,17.53
2018-05-17T13:48:00.771Z,14.80
2018-05-17T13:50:28.994Z,14.37
2018-05-17T13:52:56.418Z,13.90
2018-05-17T13:55:23.858Z,14.07
2018-05-17T13:57:51.266Z,13.80
2018-05-17T14:00:18.700Z,13.30
2018-05-17T14:02:46.163Z,13.97
2018-05-17T14:05:13.643Z,12.93
2018-05-17T14:07:41.062Z,14.60
2018-05-17T14:10:08.490Z,13.43
2018-05-17T14:12:36.679Z,15.33
2018-05-17T14:15:04.107Z,13.70
2018-05-17T14:17:31.531Z,14.50
2018-05-17T14:19:58.958Z,16.10
2018-05-17T14:22:26.379Z,16.50
2018-05-17T14:24:53.819Z,15.57
2018-05-17T14:27:21.229Z,14.27
2018-05-17T14:29:48.654Z,12.73
2018-05-17T14:32:16.082Z,13.90
2018-05-17T14:34:43.508Z,14.13
2018-05-17T14:37:10.970Z,15.20
2018-05-17T14:39:38.405Z,15.00
2018-05-17T14:42:05.831Z,15.40
2018-05-17T14:44:33.242Z,16.77
2018-05-17T14:47:00.670Z,15.97
2018-05-17T14:49:28.120Z,14.50
2018-05-17T14:51:55.607Z,16.00
2018-05-17T14:54:23.027Z,15.87
2018-05-17T14:56:51.414Z,15.33
2018-05-17T14:59:18.838Z,15.17
2018-05-17T15:01:46.363Z,13.90
2018-05-17T15:04:13.906Z,13.50
2018-05-17T15:06:41.335Z,14.23
2018-05-17T15:09:08.822Z,14.57
2018-05-17T15:11:36.250Z,15.40
2018-05-17T15:14:03.773Z,13.40
2018-05-17T15:16:31.162Z,11.73
2018-05-17T15:18:58.579Z,11.93
2018-05-17T15:21:26.006Z,12.10
2018-05-17T15:23:53.494Z,13.80
2018-05-17T15:26:20.951Z,12.83
2018-05-17T15:28:48.366Z,12.03
2018-05-17T15:31:15.799Z,13.50
2018-05-17T15:33:43.379Z,11.50
2018-05-17T15:36:10.858Z,11.47
2018-05-17T15:38:38.239Z,10.60
2018-05-17T15:41:05.658Z,11.43
2018-05-17T15:43:33.090Z,11.27
2018-05-17T15:46:00.519Z,10.13
2018-05-17T15:48:28.702Z,11.40
2018-05-17T15:50:56.130Z,9.30
2018-05-17T15:53:23.559Z,11.13
2018-05-17T15:55:51.054Z,12.87
2018-05-17T15:58:18.471Z,12.80
2018-05-17T16:00:45.926Z,11.80
2018-05-17T16:03:13.356Z,10.57
2018-05-17T16:05:40.786Z,11.80
2018-05-17T16:08:09.287Z,11.20
2018-05-17T16:10:36.714Z,10.67
2018-05-17T16:13:04.906Z,12.47
2018-05-17T16:15:32.524Z,11.07
2018-05-17T16:17:59.850Z,12.33
2018-05-17T16:20:27.430Z,11.30
2018-05-17T16:22:54.866Z,9.97
2018-05-17T16:25:22.308Z,9.40
2018-05-17T16:27:49.735Z,9.20
2018-05-17T16:30:17.930Z,10.17
2018-05-17T16:32:45.360Z,9.47
2018-05-17T16:35:12.794Z,9.93
2018-05-17T16:37:40.224Z,9.23
2018-05-17T16:40:07.649Z,9.17
2018-05-17T16:42:35.184Z,8.37
2018-05-17T16:45:02.627Z,8.90
2018-05-17T16:47:30.090Z,9.90
2018-05-17T16:49:57.515Z,7.53
2018-05-17T16:52:24.950Z,7.50
2018-05-17T16:54:52.376Z,8.30
2018-05-17T16:57:20.573Z,8.37
2018-05-17T16:59:48.047Z,8.70
2018-05-17T17:02:15.471Z,7.33
2018-05-17T17:04:42.892Z,9.07
2018-05-17T17:07:10.318Z,9.50
2018-05-17T17:09:37.751Z,10.23
2018-05-17T17:12:05.324Z,8.67
2018-05-17T17:14:32.747Z,8.50
2018-05-17T17:17:00.174Z,9.40
2018-05-17T17:19:27.598Z,9.73
2018-05-17T17:21:55.041Z,9.60
2018-05-17T17:24:22.470Z,9.10
2018-05-17T17:26:49.931Z,7.60
2018-05-17T17:29:17.427Z,9.40
2018-05-17T17:31:44.855Z,8.93
2018-05-17T17:34:12.351Z,7.60
2018-05-17T17:36:40.584Z,8.83
2018-05-17T17:39:07.903Z,7.50
2018-05-17T17:41:35.333Z,7.27
2018-05-17T17:44:02.867Z,6.20
2018-05-17T17:46:30.330Z,7.80
2018-05-17T17:48:57.782Z,6.30
2018-05-17T17:51:25.206Z,7.43
2018-05-17T17:53:52.622Z,5.50
2018-05-17T17:56:20.051Z,5.60
2018-05-17T17:58:47.480Z,5.80
2018-05-17T18:01:14.906Z,6.03
2018-05-17T18:03:42.508Z,5.53
2018-05-17T18:06:09.930Z,5.30
2018-05-17T18:08:37.357Z,4.77
2018-05-17T18:11:04.791Z,5.20
2018-05-17T18:13:32.227Z,5.80
2018-05-17T18:15:59.712Z,6.37
2018-05-17T18:18:27.118Z,5.27
2018-05-17T18:20:54.680Z,5.10
2018-05-17T18:23:22.095Z,4.00
2018-05-17T18:25:49.624Z,4.60
2018-05-17T18:28:17.052Z,5.43
2018-05-17T18:30:44.462Z,6.23
2018-05-17T18:33:11.886Z,5.40
2018-05-17T18:35:39.326Z,5.20
2018-05-17T18:38:06.750Z,5.10
2018-05-17T18:40:34.971Z,5.37
2018-05-17T18:43:02.430Z,5.93
2018-05-17T18:45:29.847Z,5.43
2018-05-17T18:47:57.335Z,4.30
2018-05-17T18:50:24.754Z,5.30
2018-05-17T18:52:52.248Z,4.50
2018-05-17T18:55:22.916Z,4.97
2018-05-17T18:57:47.086Z,5.80
2018-05-17T19:00:14.528Z,4.27
2018-05-17T19:02:42.048Z,3.73
2018-05-17T19:05:10.122Z,5.07
2018-05-17T19:07:37.542Z,3.87
2018-05-17T19:10:05.046Z,4.57
2018-05-17T19:12:32.471Z,5.60
2018-05-17T19:15:00.646Z,3.87
2018-05-17T19:17:28.071Z,4.30
2018-05-17T19:19:55.678Z,4.17
2018-05-17T19:22:23.094Z,4.30
2018-05-17T19:24:50.506Z,3.20
2018-05-17T19:27:17.930Z,4.57
2018-05-17T19:29:45.632Z,5.00
2018-05-17T19:32:13.050Z,4.30
2018-05-17T19:34:40.467Z,3.87
2018-05-17T19:37:07.929Z,4.13
2018-05-17T19:39:35.328Z,5.00
2018-05-17T19:42:03.494Z,5.10
2018-05-17T19:44:30.926Z,3.77
2018-05-17T19:46:58.342Z,4.43
2018-05-17T19:49:25.802Z,4.50
2018-05-17T19:51:53.230Z,3.90
2018-05-17T19:54:20.642Z,4.40
2018-05-17T19:56:48.134Z,4.23
2018-05-17T19:59:15.722Z,3.77
2018-05-17T20:01:43.175Z,5.40
2018-05-17T20:04:10.595Z,4.67
2018-05-17T20:06:38.020Z,5.47
2018-05-17T20:09:05.547Z,5.40
2018-05-17T20:11:32.970Z,5.43
2018-05-17T20:14:00.414Z,5.37
2018-05-17T20:16:27.833Z,5.20
2018-05-17T20:18:55.260Z,4.10
2018-05-17T20:21:22.734Z,5.37
2018-05-17T20:23:50.163Z,4.90
2018-05-17T20:26:17.766Z,6.00
2018-05-17T20:28:45.184Z,4.00
2018-05-17T20:31:12.606Z,5.03
2018-05-17T20:33:40.034Z,4.63
2018-05-17T20:36:07.628Z,4.70
2018-05-17T20:38:35.067Z,4.90
2018-05-17T20:41:02.493Z,5.00
2018-05-17T20:43:29.918Z,5.70
2018-05-17T20:45:57.334Z,4.00
2018-05-17T20:48:24.850Z,4.30
2018-05-17T20:50:52.313Z,4.67
2018-05-17T20:53:19.755Z,4.40
2018-05-17T20:55:47.214Z,4.00
2018-05-17T20:58:14.670Z,4.03
2018-05-17T21:00:42.096Z,3.83
2018-05-17T21:03:09.523Z,4.50
2018-05-17T21:05:36.942Z,4.90
2018-05-17T21:08:04.414Z,5.00
2018-05-17T21:10:31.950Z,4.70
2018-05-17T21:12:59.375Z,4.50
2018-05-17T21:15:26.795Z,4.03
2018-05-17T21:17:54.230Z,5.10
2018-05-17T21:20:21.653Z,5.20
2018-05-17T21:22:49.143Z,4.30
2018-05-17T21:25:16.563Z,5.20
2018-05-17T21:27:44.944Z,5.30
2018-05-17T21:30:12.522Z,4.30
2018-05-17T21:32:39.978Z,5.10
2018-05-17T21:35:07.398Z,4.77
2018-05-17T21:37:34.910Z,4.10
2018-05-17T21:40:02.334Z,4.47
2018-05-17T21:42:29.755Z,3.60
2018-05-17T21:44:57.341Z,6.07
2018-05-17T21:47:24.686Z,4.73
2018-05-17T21:49:52.174Z,4.53
2018-05-17T21:52:19.606Z,4.20
2018-05-17T21:54:47.026Z,4.37
2018-05-17T21:57:16.831Z,4.23
2018-05-17T21:59:44.259Z,5.20
2018-05-17T22:02:11.793Z,4.80
2018-05-17T22:04:39.210Z,5.13
2018-05-17T22:07:06.826Z,4.20
2018-05-17T22:09:34.278Z,4.57
2018-05-17T22:12:01.739Z,4.60
2018-05-17T22:14:29.158Z,4.60
2018-05-17T22:16:56.578Z,4.60
2018-05-17T22:19:24.011Z,4.67
2018-05-17T22:21:51.566Z,4.13
2018-05-17T22:24:19.019Z,4.93
2018-05-17T22:26:46.443Z,4.67
2018-05-17T22:29:13.943Z,5.23
2018-05-17T22:31:41.386Z,6.10
2018-05-17T22:34:08.842Z,4.17
2018-05-17T22:36:36.275Z,5.50
2018-05-17T22:39:03.696Z,4.63
2018-05-17T22:41:31.119Z,5.00
2018-05-17T22:43:58.538Z,4.10
2018-05-17T22:46:25.962Z,4.07
2018-05-17T22:48:53.406Z,5.13
2018-05-17T22:51:20.824Z,5.57
2018-05-17T22:53:48.354Z,4.67
2018-05-17T22:56:28.370Z,5.70
2018-05-17T22:58:58.138Z,5.27
2018-05-17T23:01:25.566Z,4.90
2018-05-17T23:03:52.994Z,4.10
2018-05-17T23:06:20.411Z,5.13
2018-05-17T23:08:47.980Z,5.43
2018-05-17T23:11:15.399Z,4.67
2018-05-17T23:13:42.858Z,5.00
2018-05-17T23:16:10.281Z,4.73
2018-05-17T23:18:37.711Z,5.47
2018-05-17T23:21:05.127Z,4.27
2018-05-17T23:23:32.590Z,6.53
2018-05-17T23:26:00.074Z,6.10
2018-05-17T23:28:27.503Z,4.43
2018-05-17T23:30:54.922Z,5.60
2018-05-17T23:33:22.347Z,5.43
2018-05-17T23:35:49.766Z,5.40
2018-05-17T23:38:17.455Z,5.23
2018-05-17T23:54:09.986Z,5.03
2018-05-17T23:56:37.414Z,5.27
2018-05-17T23:59:04.991Z,6.40
